<?xml version="1.0" encoding="UTF-8" standalone="no" ?>
<gpx xmlns="http://www.topografix.com/GPX/1/1" xmlns:xsi="http://www.w3.org/2001/XMLSchema-instance" xsi:schemaLocation="http://www.topografix.com/GPX/1/1 http://www.topografix.com/GPX/1/1/gpx.xsd" version="1.1" creator="VisuGPX - https://www.visugpx.com">
  <metadata>
    <name>Autour d\'Echalas</name>
    <desc><![CDATA[A 25 km de Lyon, y a personne, que demander de plus...]]></desc>
  </metadata>
  <trk>
    <name><![CDATA[Sequence 4]]></name>
    <trkseg>
      <trkpt lat="45.52693" lon="4.74637">
        <ele>561</ele>
        <time>2015-05-27T14:01:51Z</time>
      </trkpt>
      <trkpt lat="45.52693" lon="4.74637">
        <ele>561</ele>
        <time>2015-05-27T14:01:54Z</time>
      </trkpt>
      <trkpt lat="45.52693" lon="4.74636">
        <ele>560</ele>
        <time>2015-05-27T14:01:57Z</time>
      </trkpt>
      <trkpt lat="45.52693" lon="4.74636">
        <ele>559</ele>
        <time>2015-05-27T14:02:00Z</time>
      </trkpt>
      <trkpt lat="45.52693" lon="4.74636">
        <ele>559</ele>
        <time>2015-05-27T14:02:03Z</time>
      </trkpt>
      <trkpt lat="45.52694" lon="4.74637">
        <ele>560</ele>
        <time>2015-05-27T14:02:06Z</time>
      </trkpt>
      <trkpt lat="45.52694" lon="4.74637">
        <ele>560</ele>
        <time>2015-05-27T14:02:09Z</time>
      </trkpt>
      <trkpt lat="45.52695" lon="4.74636">
        <ele>561</ele>
        <time>2015-05-27T14:02:12Z</time>
      </trkpt>
      <trkpt lat="45.52696" lon="4.74636">
        <ele>562</ele>
        <time>2015-05-27T14:02:15Z</time>
      </trkpt>
      <trkpt lat="45.52695" lon="4.74636">
        <ele>561</ele>
        <time>2015-05-27T14:02:20Z</time>
      </trkpt>
      <trkpt lat="45.52696" lon="4.74636">
        <ele>560</ele>
        <time>2015-05-27T14:02:23Z</time>
      </trkpt>
      <trkpt lat="45.52696" lon="4.74637">
        <ele>560</ele>
        <time>2015-05-27T14:02:26Z</time>
      </trkpt>
      <trkpt lat="45.52696" lon="4.74637">
        <ele>560</ele>
        <time>2015-05-27T14:02:29Z</time>
      </trkpt>
      <trkpt lat="45.52695" lon="4.74637">
        <ele>560</ele>
        <time>2015-05-27T14:02:32Z</time>
      </trkpt>
      <trkpt lat="45.52695" lon="4.74637">
        <ele>560</ele>
        <time>2015-05-27T14:02:35Z</time>
      </trkpt>
      <trkpt lat="45.52695" lon="4.74639">
        <ele>561</ele>
        <time>2015-05-27T14:02:38Z</time>
      </trkpt>
      <trkpt lat="45.52694" lon="4.74639">
        <ele>561</ele>
        <time>2015-05-27T14:02:41Z</time>
      </trkpt>
      <trkpt lat="45.52693" lon="4.74639">
        <ele>560</ele>
        <time>2015-05-27T14:02:44Z</time>
      </trkpt>
      <trkpt lat="45.52693" lon="4.7464">
        <ele>561</ele>
        <time>2015-05-27T14:02:47Z</time>
      </trkpt>
      <trkpt lat="45.52693" lon="4.74638">
        <ele>562</ele>
        <time>2015-05-27T14:02:50Z</time>
      </trkpt>
      <trkpt lat="45.52688" lon="4.74629">
        <ele>563</ele>
        <time>2015-05-27T14:02:55Z</time>
      </trkpt>
      <trkpt lat="45.52681" lon="4.7461">
        <ele>561</ele>
        <time>2015-05-27T14:03:00Z</time>
      </trkpt>
      <trkpt lat="45.52679" lon="4.74579">
        <ele>558</ele>
        <time>2015-05-27T14:03:05Z</time>
      </trkpt>
      <trkpt lat="45.5267" lon="4.74546">
        <ele>558</ele>
        <time>2015-05-27T14:03:10Z</time>
      </trkpt>
      <trkpt lat="45.52662" lon="4.7452">
        <ele>557</ele>
        <time>2015-05-27T14:03:15Z</time>
      </trkpt>
      <trkpt lat="45.52661" lon="4.74493">
        <ele>550</ele>
        <time>2015-05-27T14:03:20Z</time>
      </trkpt>
      <trkpt lat="45.52669" lon="4.74464">
        <ele>543</ele>
        <time>2015-05-27T14:03:26Z</time>
      </trkpt>
      <trkpt lat="45.52676" lon="4.74442">
        <ele>540</ele>
        <time>2015-05-27T14:03:30Z</time>
      </trkpt>
      <trkpt lat="45.52702" lon="4.74402">
        <ele>536</ele>
        <time>2015-05-27T14:03:36Z</time>
      </trkpt>
      <trkpt lat="45.52716" lon="4.74378">
        <ele>534</ele>
        <time>2015-05-27T14:03:40Z</time>
      </trkpt>
      <trkpt lat="45.52737" lon="4.74346">
        <ele>527</ele>
        <time>2015-05-27T14:03:48Z</time>
      </trkpt>
      <trkpt lat="45.52737" lon="4.74336">
        <ele>525</ele>
        <time>2015-05-27T14:03:50Z</time>
      </trkpt>
      <trkpt lat="45.5275" lon="4.74309">
        <ele>516</ele>
        <time>2015-05-27T14:03:58Z</time>
      </trkpt>
      <trkpt lat="45.52749" lon="4.74301">
        <ele>517</ele>
        <time>2015-05-27T14:04:00Z</time>
      </trkpt>
      <trkpt lat="45.52751" lon="4.74277">
        <ele>514</ele>
        <time>2015-05-27T14:04:05Z</time>
      </trkpt>
      <trkpt lat="45.52762" lon="4.74245">
        <ele>503</ele>
        <time>2015-05-27T14:04:10Z</time>
      </trkpt>
      <trkpt lat="45.52785" lon="4.74205">
        <ele>493</ele>
        <time>2015-05-27T14:04:15Z</time>
      </trkpt>
      <trkpt lat="45.52804" lon="4.74163">
        <ele>489</ele>
        <time>2015-05-27T14:04:20Z</time>
      </trkpt>
      <trkpt lat="45.52824" lon="4.74122">
        <ele>483</ele>
        <time>2015-05-27T14:04:25Z</time>
      </trkpt>
      <trkpt lat="45.52849" lon="4.74088">
        <ele>475</ele>
        <time>2015-05-27T14:04:32Z</time>
      </trkpt>
      <trkpt lat="45.52858" lon="4.74086">
        <ele>472</ele>
        <time>2015-05-27T14:04:35Z</time>
      </trkpt>
      <trkpt lat="45.52876" lon="4.74094">
        <ele>470</ele>
        <time>2015-05-27T14:04:40Z</time>
      </trkpt>
      <trkpt lat="45.52898" lon="4.74109">
        <ele>470</ele>
        <time>2015-05-27T14:04:45Z</time>
      </trkpt>
      <trkpt lat="45.52916" lon="4.74075">
        <ele>467</ele>
        <time>2015-05-27T14:04:50Z</time>
      </trkpt>
      <trkpt lat="45.52916" lon="4.74019">
        <ele>464</ele>
        <time>2015-05-27T14:04:55Z</time>
      </trkpt>
      <trkpt lat="45.52894" lon="4.73966">
        <ele>461</ele>
        <time>2015-05-27T14:05:00Z</time>
      </trkpt>
      <trkpt lat="45.52829" lon="4.73927">
        <ele>450</ele>
        <time>2015-05-27T14:05:07Z</time>
      </trkpt>
      <trkpt lat="45.52793" lon="4.7393">
        <ele>445</ele>
        <time>2015-05-27T14:05:11Z</time>
      </trkpt>
      <trkpt lat="45.52794" lon="4.73905">
        <ele>440</ele>
        <time>2015-05-27T14:05:17Z</time>
      </trkpt>
      <trkpt lat="45.52805" lon="4.73884">
        <ele>438</ele>
        <time>2015-05-27T14:05:20Z</time>
      </trkpt>
      <trkpt lat="45.52827" lon="4.73842">
        <ele>435</ele>
        <time>2015-05-27T14:05:25Z</time>
      </trkpt>
      <trkpt lat="45.5285" lon="4.73795">
        <ele>432</ele>
        <time>2015-05-27T14:05:30Z</time>
      </trkpt>
      <trkpt lat="45.5287" lon="4.73742">
        <ele>428</ele>
        <time>2015-05-27T14:05:35Z</time>
      </trkpt>
      <trkpt lat="45.52893" lon="4.73692">
        <ele>423</ele>
        <time>2015-05-27T14:05:40Z</time>
      </trkpt>
      <trkpt lat="45.52924" lon="4.73657">
        <ele>421</ele>
        <time>2015-05-27T14:05:45Z</time>
      </trkpt>
      <trkpt lat="45.5294" lon="4.73638">
        <ele>420</ele>
        <time>2015-05-27T14:05:50Z</time>
      </trkpt>
      <trkpt lat="45.52944" lon="4.73608">
        <ele>420</ele>
        <time>2015-05-27T14:05:57Z</time>
      </trkpt>
      <trkpt lat="45.52947" lon="4.73591">
        <ele>420</ele>
        <time>2015-05-27T14:06:00Z</time>
      </trkpt>
      <trkpt lat="45.52951" lon="4.7356">
        <ele>422</ele>
        <time>2015-05-27T14:06:05Z</time>
      </trkpt>
      <trkpt lat="45.52958" lon="4.73521">
        <ele>418</ele>
        <time>2015-05-27T14:06:10Z</time>
      </trkpt>
      <trkpt lat="45.52974" lon="4.73481">
        <ele>416</ele>
        <time>2015-05-27T14:06:15Z</time>
      </trkpt>
      <trkpt lat="45.53" lon="4.73447">
        <ele>414</ele>
        <time>2015-05-27T14:06:20Z</time>
      </trkpt>
      <trkpt lat="45.53026" lon="4.7342">
        <ele>415</ele>
        <time>2015-05-27T14:06:25Z</time>
      </trkpt>
      <trkpt lat="45.53049" lon="4.73396">
        <ele>415</ele>
        <time>2015-05-27T14:06:30Z</time>
      </trkpt>
      <trkpt lat="45.53064" lon="4.73379">
        <ele>416</ele>
        <time>2015-05-27T14:06:35Z</time>
      </trkpt>
      <trkpt lat="45.53076" lon="4.73365">
        <ele>415</ele>
        <time>2015-05-27T14:06:40Z</time>
      </trkpt>
      <trkpt lat="45.53088" lon="4.73353">
        <ele>413</ele>
        <time>2015-05-27T14:06:45Z</time>
      </trkpt>
      <trkpt lat="45.53102" lon="4.73337">
        <ele>411</ele>
        <time>2015-05-27T14:06:50Z</time>
      </trkpt>
      <trkpt lat="45.53125" lon="4.73314">
        <ele>407</ele>
        <time>2015-05-27T14:06:56Z</time>
      </trkpt>
      <trkpt lat="45.53141" lon="4.73298">
        <ele>405</ele>
        <time>2015-05-27T14:07:00Z</time>
      </trkpt>
      <trkpt lat="45.53153" lon="4.73287">
        <ele>404</ele>
        <time>2015-05-27T14:07:05Z</time>
      </trkpt>
      <trkpt lat="45.53175" lon="4.73267">
        <ele>400</ele>
        <time>2015-05-27T14:07:13Z</time>
      </trkpt>
      <trkpt lat="45.53179" lon="4.73262">
        <ele>399</ele>
        <time>2015-05-27T14:07:15Z</time>
      </trkpt>
      <trkpt lat="45.53193" lon="4.73247">
        <ele>395</ele>
        <time>2015-05-27T14:07:22Z</time>
      </trkpt>
      <trkpt lat="45.53205" lon="4.73234">
        <ele>393</ele>
        <time>2015-05-27T14:07:26Z</time>
      </trkpt>
      <trkpt lat="45.5325" lon="4.73247">
        <ele>388</ele>
        <time>2015-05-27T14:07:34Z</time>
      </trkpt>
      <trkpt lat="45.53255" lon="4.73246">
        <ele>388</ele>
        <time>2015-05-27T14:07:35Z</time>
      </trkpt>
      <trkpt lat="45.53281" lon="4.73224">
        <ele>387</ele>
        <time>2015-05-27T14:07:40Z</time>
      </trkpt>
      <trkpt lat="45.53303" lon="4.73234">
        <ele>381</ele>
        <time>2015-05-27T14:07:45Z</time>
      </trkpt>
      <trkpt lat="45.53306" lon="4.73269">
        <ele>380</ele>
        <time>2015-05-27T14:07:50Z</time>
      </trkpt>
      <trkpt lat="45.53312" lon="4.73304">
        <ele>386</ele>
        <time>2015-05-27T14:07:55Z</time>
      </trkpt>
      <trkpt lat="45.53316" lon="4.73371">
        <ele>385</ele>
        <time>2015-05-27T14:08:01Z</time>
      </trkpt>
      <trkpt lat="45.53321" lon="4.73395">
        <ele>380</ele>
        <time>2015-05-27T14:08:06Z</time>
      </trkpt>
      <trkpt lat="45.53335" lon="4.73387">
        <ele>375</ele>
        <time>2015-05-27T14:08:10Z</time>
      </trkpt>
      <trkpt lat="45.5334" lon="4.73355">
        <ele>374</ele>
        <time>2015-05-27T14:08:15Z</time>
      </trkpt>
      <trkpt lat="45.53351" lon="4.73308">
        <ele>371</ele>
        <time>2015-05-27T14:08:21Z</time>
      </trkpt>
      <trkpt lat="45.53375" lon="4.7325">
        <ele>369</ele>
        <time>2015-05-27T14:08:28Z</time>
      </trkpt>
      <trkpt lat="45.53401" lon="4.7325">
        <ele>365</ele>
        <time>2015-05-27T14:08:32Z</time>
      </trkpt>
      <trkpt lat="45.53421" lon="4.73263">
        <ele>364</ele>
        <time>2015-05-27T14:08:35Z</time>
      </trkpt>
      <trkpt lat="45.53444" lon="4.73293">
        <ele>363</ele>
        <time>2015-05-27T14:08:40Z</time>
      </trkpt>
      <trkpt lat="45.53466" lon="4.73273">
        <ele>365</ele>
        <time>2015-05-27T14:08:48Z</time>
      </trkpt>
      <trkpt lat="45.53463" lon="4.73262">
        <ele>366</ele>
        <time>2015-05-27T14:08:51Z</time>
      </trkpt>
      <trkpt lat="45.53448" lon="4.73238">
        <ele>372</ele>
        <time>2015-05-27T14:08:58Z</time>
      </trkpt>
      <trkpt lat="45.53442" lon="4.73225">
        <ele>373</ele>
        <time>2015-05-27T14:09:01Z</time>
      </trkpt>
      <trkpt lat="45.53435" lon="4.73214">
        <ele>376</ele>
        <time>2015-05-27T14:09:05Z</time>
      </trkpt>
      <trkpt lat="45.53428" lon="4.73199">
        <ele>374</ele>
        <time>2015-05-27T14:09:10Z</time>
      </trkpt>
      <trkpt lat="45.53422" lon="4.73179">
        <ele>373</ele>
        <time>2015-05-27T14:09:15Z</time>
      </trkpt>
      <trkpt lat="45.53415" lon="4.73165">
        <ele>374</ele>
        <time>2015-05-27T14:09:20Z</time>
      </trkpt>
      <trkpt lat="45.53412" lon="4.73148">
        <ele>375</ele>
        <time>2015-05-27T14:09:25Z</time>
      </trkpt>
      <trkpt lat="45.53406" lon="4.73131">
        <ele>374</ele>
        <time>2015-05-27T14:09:31Z</time>
      </trkpt>
      <trkpt lat="45.53401" lon="4.73122">
        <ele>383</ele>
        <time>2015-05-27T14:09:36Z</time>
      </trkpt>
      <trkpt lat="45.53398" lon="4.73115">
        <ele>388</ele>
        <time>2015-05-27T14:09:40Z</time>
      </trkpt>
      <trkpt lat="45.53396" lon="4.73103">
        <ele>392</ele>
        <time>2015-05-27T14:09:45Z</time>
      </trkpt>
      <trkpt lat="45.53396" lon="4.73087">
        <ele>392</ele>
        <time>2015-05-27T14:09:50Z</time>
      </trkpt>
      <trkpt lat="45.53405" lon="4.73069">
        <ele>382</ele>
        <time>2015-05-27T14:09:55Z</time>
      </trkpt>
      <trkpt lat="45.5341" lon="4.73057">
        <ele>378</ele>
        <time>2015-05-27T14:10:00Z</time>
      </trkpt>
      <trkpt lat="45.53417" lon="4.73048">
        <ele>377</ele>
        <time>2015-05-27T14:10:05Z</time>
      </trkpt>
      <trkpt lat="45.53424" lon="4.7304">
        <ele>381</ele>
        <time>2015-05-27T14:10:11Z</time>
      </trkpt>
      <trkpt lat="45.53434" lon="4.73033">
        <ele>382</ele>
        <time>2015-05-27T14:10:18Z</time>
      </trkpt>
      <trkpt lat="45.53437" lon="4.73032">
        <ele>384</ele>
        <time>2015-05-27T14:10:20Z</time>
      </trkpt>
      <trkpt lat="45.53442" lon="4.73027">
        <ele>388</ele>
        <time>2015-05-27T14:10:25Z</time>
      </trkpt>
      <trkpt lat="45.53453" lon="4.73022">
        <ele>385</ele>
        <time>2015-05-27T14:10:30Z</time>
      </trkpt>
      <trkpt lat="45.53461" lon="4.73019">
        <ele>385</ele>
        <time>2015-05-27T14:10:35Z</time>
      </trkpt>
      <trkpt lat="45.53468" lon="4.73014">
        <ele>385</ele>
        <time>2015-05-27T14:10:40Z</time>
      </trkpt>
      <trkpt lat="45.53477" lon="4.73011">
        <ele>389</ele>
        <time>2015-05-27T14:10:45Z</time>
      </trkpt>
      <trkpt lat="45.53484" lon="4.73008">
        <ele>391</ele>
        <time>2015-05-27T14:10:50Z</time>
      </trkpt>
      <trkpt lat="45.53491" lon="4.73004">
        <ele>394</ele>
        <time>2015-05-27T14:10:55Z</time>
      </trkpt>
      <trkpt lat="45.53498" lon="4.73001">
        <ele>394</ele>
        <time>2015-05-27T14:11:01Z</time>
      </trkpt>
      <trkpt lat="45.53504" lon="4.72996">
        <ele>397</ele>
        <time>2015-05-27T14:11:05Z</time>
      </trkpt>
      <trkpt lat="45.53513" lon="4.72992">
        <ele>398</ele>
        <time>2015-05-27T14:11:10Z</time>
      </trkpt>
      <trkpt lat="45.53524" lon="4.72984">
        <ele>405</ele>
        <time>2015-05-27T14:11:17Z</time>
      </trkpt>
      <trkpt lat="45.53536" lon="4.7298">
        <ele>406</ele>
        <time>2015-05-27T14:11:22Z</time>
      </trkpt>
      <trkpt lat="45.5354" lon="4.72978">
        <ele>407</ele>
        <time>2015-05-27T14:11:25Z</time>
      </trkpt>
      <trkpt lat="45.53548" lon="4.72976">
        <ele>407</ele>
        <time>2015-05-27T14:11:30Z</time>
      </trkpt>
      <trkpt lat="45.53556" lon="4.72971">
        <ele>404</ele>
        <time>2015-05-27T14:11:35Z</time>
      </trkpt>
      <trkpt lat="45.53567" lon="4.72966">
        <ele>400</ele>
        <time>2015-05-27T14:11:40Z</time>
      </trkpt>
      <trkpt lat="45.53577" lon="4.72961">
        <ele>400</ele>
        <time>2015-05-27T14:11:45Z</time>
      </trkpt>
      <trkpt lat="45.53595" lon="4.72949">
        <ele>401</ele>
        <time>2015-05-27T14:11:54Z</time>
      </trkpt>
      <trkpt lat="45.53598" lon="4.72948">
        <ele>403</ele>
        <time>2015-05-27T14:11:55Z</time>
      </trkpt>
      <trkpt lat="45.53609" lon="4.72941">
        <ele>406</ele>
        <time>2015-05-27T14:12:01Z</time>
      </trkpt>
      <trkpt lat="45.53623" lon="4.72937">
        <ele>403</ele>
        <time>2015-05-27T14:12:08Z</time>
      </trkpt>
      <trkpt lat="45.53625" lon="4.72935">
        <ele>402</ele>
        <time>2015-05-27T14:12:10Z</time>
      </trkpt>
      <trkpt lat="45.53637" lon="4.72929">
        <ele>402</ele>
        <time>2015-05-27T14:12:17Z</time>
      </trkpt>
      <trkpt lat="45.5365" lon="4.72923">
        <ele>404</ele>
        <time>2015-05-27T14:12:24Z</time>
      </trkpt>
      <trkpt lat="45.53651" lon="4.72922">
        <ele>404</ele>
        <time>2015-05-27T14:12:25Z</time>
      </trkpt>
      <trkpt lat="45.53661" lon="4.72915">
        <ele>408</ele>
        <time>2015-05-27T14:12:31Z</time>
      </trkpt>
      <trkpt lat="45.53667" lon="4.72913">
        <ele>406</ele>
        <time>2015-05-27T14:12:35Z</time>
      </trkpt>
      <trkpt lat="45.53682" lon="4.72904">
        <ele>413</ele>
        <time>2015-05-27T14:12:44Z</time>
      </trkpt>
      <trkpt lat="45.53683" lon="4.72903">
        <ele>414</ele>
        <time>2015-05-27T14:12:45Z</time>
      </trkpt>
      <trkpt lat="45.53694" lon="4.72889">
        <ele>420</ele>
        <time>2015-05-27T14:12:53Z</time>
      </trkpt>
      <trkpt lat="45.53697" lon="4.72886">
        <ele>419</ele>
        <time>2015-05-27T14:12:55Z</time>
      </trkpt>
      <trkpt lat="45.53708" lon="4.72878">
        <ele>422</ele>
        <time>2015-05-27T14:13:00Z</time>
      </trkpt>
      <trkpt lat="45.53721" lon="4.72866">
        <ele>419</ele>
        <time>2015-05-27T14:13:07Z</time>
      </trkpt>
      <trkpt lat="45.53727" lon="4.72861">
        <ele>418</ele>
        <time>2015-05-27T14:13:10Z</time>
      </trkpt>
      <trkpt lat="45.53732" lon="4.72856">
        <ele>421</ele>
        <time>2015-05-27T14:13:15Z</time>
      </trkpt>
      <trkpt lat="45.5374" lon="4.72851">
        <ele>418</ele>
        <time>2015-05-27T14:13:20Z</time>
      </trkpt>
      <trkpt lat="45.53749" lon="4.72844">
        <ele>418</ele>
        <time>2015-05-27T14:13:25Z</time>
      </trkpt>
      <trkpt lat="45.53756" lon="4.72839">
        <ele>417</ele>
        <time>2015-05-27T14:13:30Z</time>
      </trkpt>
      <trkpt lat="45.53768" lon="4.72834">
        <ele>417</ele>
        <time>2015-05-27T14:13:35Z</time>
      </trkpt>
      <trkpt lat="45.53775" lon="4.72828">
        <ele>419</ele>
        <time>2015-05-27T14:13:40Z</time>
      </trkpt>
      <trkpt lat="45.53784" lon="4.72825">
        <ele>414</ele>
        <time>2015-05-27T14:13:45Z</time>
      </trkpt>
      <trkpt lat="45.53791" lon="4.72819">
        <ele>414</ele>
        <time>2015-05-27T14:13:50Z</time>
      </trkpt>
      <trkpt lat="45.53803" lon="4.72808">
        <ele>412</ele>
        <time>2015-05-27T14:13:56Z</time>
      </trkpt>
      <trkpt lat="45.53812" lon="4.728">
        <ele>410</ele>
        <time>2015-05-27T14:14:00Z</time>
      </trkpt>
      <trkpt lat="45.5382" lon="4.72793">
        <ele>413</ele>
        <time>2015-05-27T14:14:05Z</time>
      </trkpt>
      <trkpt lat="45.5384" lon="4.72781">
        <ele>415</ele>
        <time>2015-05-27T14:14:14Z</time>
      </trkpt>
      <trkpt lat="45.53842" lon="4.72779">
        <ele>414</ele>
        <time>2015-05-27T14:14:15Z</time>
      </trkpt>
      <trkpt lat="45.53857" lon="4.7277">
        <ele>417</ele>
        <time>2015-05-27T14:14:22Z</time>
      </trkpt>
      <trkpt lat="45.53864" lon="4.72765">
        <ele>417</ele>
        <time>2015-05-27T14:14:25Z</time>
      </trkpt>
      <trkpt lat="45.53875" lon="4.7276">
        <ele>417</ele>
        <time>2015-05-27T14:14:30Z</time>
      </trkpt>
      <trkpt lat="45.53885" lon="4.72757">
        <ele>419</ele>
        <time>2015-05-27T14:14:35Z</time>
      </trkpt>
      <trkpt lat="45.53894" lon="4.72752">
        <ele>420</ele>
        <time>2015-05-27T14:14:40Z</time>
      </trkpt>
      <trkpt lat="45.53903" lon="4.72748">
        <ele>420</ele>
        <time>2015-05-27T14:14:45Z</time>
      </trkpt>
      <trkpt lat="45.53912" lon="4.72745">
        <ele>421</ele>
        <time>2015-05-27T14:14:50Z</time>
      </trkpt>
      <trkpt lat="45.53921" lon="4.72741">
        <ele>422</ele>
        <time>2015-05-27T14:14:55Z</time>
      </trkpt>
      <trkpt lat="45.53929" lon="4.72737">
        <ele>424</ele>
        <time>2015-05-27T14:15:00Z</time>
      </trkpt>
      <trkpt lat="45.53939" lon="4.72733">
        <ele>424</ele>
        <time>2015-05-27T14:15:05Z</time>
      </trkpt>
      <trkpt lat="45.5395" lon="4.72728">
        <ele>424</ele>
        <time>2015-05-27T14:15:10Z</time>
      </trkpt>
      <trkpt lat="45.53959" lon="4.72724">
        <ele>425</ele>
        <time>2015-05-27T14:15:15Z</time>
      </trkpt>
      <trkpt lat="45.53967" lon="4.72719">
        <ele>426</ele>
        <time>2015-05-27T14:15:20Z</time>
      </trkpt>
      <trkpt lat="45.53978" lon="4.72712">
        <ele>426</ele>
        <time>2015-05-27T14:15:26Z</time>
      </trkpt>
      <trkpt lat="45.53985" lon="4.72707">
        <ele>427</ele>
        <time>2015-05-27T14:15:30Z</time>
      </trkpt>
      <trkpt lat="45.53994" lon="4.72699">
        <ele>428</ele>
        <time>2015-05-27T14:15:35Z</time>
      </trkpt>
      <trkpt lat="45.54005" lon="4.7269">
        <ele>429</ele>
        <time>2015-05-27T14:15:41Z</time>
      </trkpt>
      <trkpt lat="45.54013" lon="4.72681">
        <ele>427</ele>
        <time>2015-05-27T14:15:45Z</time>
      </trkpt>
      <trkpt lat="45.5402" lon="4.72674">
        <ele>426</ele>
        <time>2015-05-27T14:15:50Z</time>
      </trkpt>
      <trkpt lat="45.54027" lon="4.72666">
        <ele>428</ele>
        <time>2015-05-27T14:15:55Z</time>
      </trkpt>
      <trkpt lat="45.54034" lon="4.72657">
        <ele>429</ele>
        <time>2015-05-27T14:16:00Z</time>
      </trkpt>
      <trkpt lat="45.5404" lon="4.7265">
        <ele>432</ele>
        <time>2015-05-27T14:16:05Z</time>
      </trkpt>
      <trkpt lat="45.54048" lon="4.72645">
        <ele>431</ele>
        <time>2015-05-27T14:16:10Z</time>
      </trkpt>
      <trkpt lat="45.5406" lon="4.72637">
        <ele>432</ele>
        <time>2015-05-27T14:16:15Z</time>
      </trkpt>
      <trkpt lat="45.54072" lon="4.72628">
        <ele>432</ele>
        <time>2015-05-27T14:16:20Z</time>
      </trkpt>
      <trkpt lat="45.54088" lon="4.72617">
        <ele>431</ele>
        <time>2015-05-27T14:16:25Z</time>
      </trkpt>
      <trkpt lat="45.54107" lon="4.72606">
        <ele>431</ele>
        <time>2015-05-27T14:16:30Z</time>
      </trkpt>
      <trkpt lat="45.54131" lon="4.72595">
        <ele>430</ele>
        <time>2015-05-27T14:16:35Z</time>
      </trkpt>
      <trkpt lat="45.5418" lon="4.72575">
        <ele>425</ele>
        <time>2015-05-27T14:16:44Z</time>
      </trkpt>
      <trkpt lat="45.54186" lon="4.72572">
        <ele>425</ele>
        <time>2015-05-27T14:16:45Z</time>
      </trkpt>
      <trkpt lat="45.54211" lon="4.72556">
        <ele>423</ele>
        <time>2015-05-27T14:16:50Z</time>
      </trkpt>
      <trkpt lat="45.54237" lon="4.72538">
        <ele>422</ele>
        <time>2015-05-27T14:16:55Z</time>
      </trkpt>
      <trkpt lat="45.54263" lon="4.72524">
        <ele>423</ele>
        <time>2015-05-27T14:17:00Z</time>
      </trkpt>
      <trkpt lat="45.54291" lon="4.72509">
        <ele>421</ele>
        <time>2015-05-27T14:17:05Z</time>
      </trkpt>
      <trkpt lat="45.54331" lon="4.72487">
        <ele>419</ele>
        <time>2015-05-27T14:17:12Z</time>
      </trkpt>
      <trkpt lat="45.54347" lon="4.72478">
        <ele>421</ele>
        <time>2015-05-27T14:17:15Z</time>
      </trkpt>
      <trkpt lat="45.54373" lon="4.72462">
        <ele>419</ele>
        <time>2015-05-27T14:17:20Z</time>
      </trkpt>
      <trkpt lat="45.54408" lon="4.72443">
        <ele>420</ele>
        <time>2015-05-27T14:17:27Z</time>
      </trkpt>
      <trkpt lat="45.54423" lon="4.72437">
        <ele>418</ele>
        <time>2015-05-27T14:17:30Z</time>
      </trkpt>
      <trkpt lat="45.54461" lon="4.72419">
        <ele>418</ele>
        <time>2015-05-27T14:17:39Z</time>
      </trkpt>
      <trkpt lat="45.54465" lon="4.72417">
        <ele>418</ele>
        <time>2015-05-27T14:17:40Z</time>
      </trkpt>
      <trkpt lat="45.54485" lon="4.72408">
        <ele>418</ele>
        <time>2015-05-27T14:17:45Z</time>
      </trkpt>
      <trkpt lat="45.54506" lon="4.72397">
        <ele>417</ele>
        <time>2015-05-27T14:17:50Z</time>
      </trkpt>
      <trkpt lat="45.54524" lon="4.72386">
        <ele>416</ele>
        <time>2015-05-27T14:17:55Z</time>
      </trkpt>
      <trkpt lat="45.54539" lon="4.72375">
        <ele>417</ele>
        <time>2015-05-27T14:18:00Z</time>
      </trkpt>
      <trkpt lat="45.54555" lon="4.72371">
        <ele>417</ele>
        <time>2015-05-27T14:18:05Z</time>
      </trkpt>
      <trkpt lat="45.54573" lon="4.7237">
        <ele>414</ele>
        <time>2015-05-27T14:18:10Z</time>
      </trkpt>
      <trkpt lat="45.5459" lon="4.72363">
        <ele>412</ele>
        <time>2015-05-27T14:18:15Z</time>
      </trkpt>
      <trkpt lat="45.54615" lon="4.72345">
        <ele>410</ele>
        <time>2015-05-27T14:18:20Z</time>
      </trkpt>
      <trkpt lat="45.54644" lon="4.7232">
        <ele>407</ele>
        <time>2015-05-27T14:18:25Z</time>
      </trkpt>
      <trkpt lat="45.54676" lon="4.72293">
        <ele>406</ele>
        <time>2015-05-27T14:18:30Z</time>
      </trkpt>
      <trkpt lat="45.54712" lon="4.72261">
        <ele>403</ele>
        <time>2015-05-27T14:18:35Z</time>
      </trkpt>
      <trkpt lat="45.5475" lon="4.72223">
        <ele>398</ele>
        <time>2015-05-27T14:18:40Z</time>
      </trkpt>
      <trkpt lat="45.54792" lon="4.72184">
        <ele>397</ele>
        <time>2015-05-27T14:18:45Z</time>
      </trkpt>
      <trkpt lat="45.54837" lon="4.72145">
        <ele>394</ele>
        <time>2015-05-27T14:18:50Z</time>
      </trkpt>
      <trkpt lat="45.54879" lon="4.72108">
        <ele>390</ele>
        <time>2015-05-27T14:18:55Z</time>
      </trkpt>
      <trkpt lat="45.5492" lon="4.72071">
        <ele>388</ele>
        <time>2015-05-27T14:19:00Z</time>
      </trkpt>
      <trkpt lat="45.54966" lon="4.72024">
        <ele>386</ele>
        <time>2015-05-27T14:19:06Z</time>
      </trkpt>
      <trkpt lat="45.5499" lon="4.7199">
        <ele>383</ele>
        <time>2015-05-27T14:19:10Z</time>
      </trkpt>
      <trkpt lat="45.55018" lon="4.71953">
        <ele>379</ele>
        <time>2015-05-27T14:19:15Z</time>
      </trkpt>
      <trkpt lat="45.55046" lon="4.71932">
        <ele>375</ele>
        <time>2015-05-27T14:19:20Z</time>
      </trkpt>
      <trkpt lat="45.55089" lon="4.71917">
        <ele>372</ele>
        <time>2015-05-27T14:19:28Z</time>
      </trkpt>
      <trkpt lat="45.5511" lon="4.71914">
        <ele>372</ele>
        <time>2015-05-27T14:19:32Z</time>
      </trkpt>
      <trkpt lat="45.55126" lon="4.71913">
        <ele>371</ele>
        <time>2015-05-27T14:19:35Z</time>
      </trkpt>
      <trkpt lat="45.55155" lon="4.71915">
        <ele>370</ele>
        <time>2015-05-27T14:19:40Z</time>
      </trkpt>
      <trkpt lat="45.55181" lon="4.7192">
        <ele>369</ele>
        <time>2015-05-27T14:19:45Z</time>
      </trkpt>
      <trkpt lat="45.55207" lon="4.71921">
        <ele>368</ele>
        <time>2015-05-27T14:19:50Z</time>
      </trkpt>
      <trkpt lat="45.55236" lon="4.71917">
        <ele>366</ele>
        <time>2015-05-27T14:19:55Z</time>
      </trkpt>
      <trkpt lat="45.55273" lon="4.71913">
        <ele>366</ele>
        <time>2015-05-27T14:20:01Z</time>
      </trkpt>
      <trkpt lat="45.553" lon="4.7191">
        <ele>364</ele>
        <time>2015-05-27T14:20:05Z</time>
      </trkpt>
      <trkpt lat="45.55337" lon="4.719">
        <ele>363</ele>
        <time>2015-05-27T14:20:10Z</time>
      </trkpt>
      <trkpt lat="45.55376" lon="4.71884">
        <ele>360</ele>
        <time>2015-05-27T14:20:15Z</time>
      </trkpt>
      <trkpt lat="45.55419" lon="4.71861">
        <ele>357</ele>
        <time>2015-05-27T14:20:20Z</time>
      </trkpt>
      <trkpt lat="45.55444" lon="4.71825">
        <ele>352</ele>
        <time>2015-05-27T14:20:25Z</time>
      </trkpt>
      <trkpt lat="45.55429" lon="4.71791">
        <ele>351</ele>
        <time>2015-05-27T14:20:30Z</time>
      </trkpt>
      <trkpt lat="45.55421" lon="4.71775">
        <ele>351</ele>
        <time>2015-05-27T14:20:35Z</time>
      </trkpt>
      <trkpt lat="45.55422" lon="4.71768">
        <ele>352</ele>
        <time>2015-05-27T14:20:40Z</time>
      </trkpt>
      <trkpt lat="45.55422" lon="4.71752">
        <ele>352</ele>
        <time>2015-05-27T14:20:47Z</time>
      </trkpt>
      <trkpt lat="45.55419" lon="4.71746">
        <ele>350</ele>
        <time>2015-05-27T14:20:52Z</time>
      </trkpt>
      <trkpt lat="45.55419" lon="4.71745">
        <ele>350</ele>
        <time>2015-05-27T14:20:55Z</time>
      </trkpt>
      <trkpt lat="45.5542" lon="4.71745">
        <ele>350</ele>
        <time>2015-05-27T14:20:58Z</time>
      </trkpt>
      <trkpt lat="45.55419" lon="4.71745">
        <ele>350</ele>
        <time>2015-05-27T14:21:01Z</time>
      </trkpt>
      <trkpt lat="45.5542" lon="4.71745">
        <ele>350</ele>
        <time>2015-05-27T14:21:04Z</time>
      </trkpt>
      <trkpt lat="45.5542" lon="4.71745">
        <ele>350</ele>
        <time>2015-05-27T14:21:07Z</time>
      </trkpt>
      <trkpt lat="45.55421" lon="4.71744">
        <ele>350</ele>
        <time>2015-05-27T14:21:10Z</time>
      </trkpt>
      <trkpt lat="45.55422" lon="4.71744">
        <ele>349</ele>
        <time>2015-05-27T14:21:13Z</time>
      </trkpt>
      <trkpt lat="45.55422" lon="4.71744">
        <ele>349</ele>
        <time>2015-05-27T14:21:16Z</time>
      </trkpt>
      <trkpt lat="45.55423" lon="4.71744">
        <ele>349</ele>
        <time>2015-05-27T14:21:19Z</time>
      </trkpt>
    </trkseg>
  </trk>
</gpx>